Northfield Village, Ohio
Current Conditions -  °F | °C
As of 10:53 PM on Friday 24 Oct 2014 (Local Time) from KBKL Reporting Station
Broken Clouds Broken Clouds  
Wind Chill: 55°   Ceiling: 5000
Heat Index: 55°   Visibility: 10mi
Dew Point: 44°   Wind: 6mph
Humidity: 67%   Direction: 210°SSW
Pressure: 29.99"   Gusts: NA
Location:  41.3128°N, 81.5476°W
Report Text: KBKL 250253Z AUTO 21005KT 10SM BKN050 13/07 A2999 RMK AO2 SLP156 T01280067 56004
Loading
Personal Weather Stations






























Interactive Weather Map
Tropical Storm Tracking
New forecast layout! Learn more

10-Day Weather Forecast

Advertisements
Track Severe Weather on mobile